sensor_id;sensor_type;location;lat;lon;timestamp;P1;durP1;ratioP1;P2;durP2;ratioP2
11604;SDS011;5858;43.076;25.626;2023-02-28T00:00:18;11.67;;;10.43;;
11604;SDS011;5858;43.076;25.626;2023-02-28T00:02:45;12.17;;;10.80;;
11604;SDS011;5858;43.076;25.626;2023-02-28T00:05:21;12.93;;;10.93;;
11604;SDS011;5858;43.076;25.626;2023-02-28T00:07:49;12.27;;;10.60;;
11604;SDS011;5858;43.076;25.626;2023-02-28T00:10:20;15.87;;;12.23;;
11604;SDS011;5858;43.076;25.626;2023-02-28T00:12:53;13.97;;;11.17;;
11604;SDS011;5858;43.076;25.626;2023-02-28T00:15:22;12.23;;;11.03;;
11604;SDS011;5858;43.076;25.626;2023-02-28T00:17:55;10.90;;;9.83;;
11604;SDS011;5858;43.076;25.626;2023-02-28T00:20:22;13.20;;;11.07;;
11604;SDS011;5858;43.076;25.626;2023-02-28T00:22:51;12.30;;;9.97;;
11604;SDS011;5858;43.076;25.626;2023-02-28T00:25:22;13.43;;;10.67;;
11604;SDS011;5858;43.076;25.626;2023-02-28T00:27:50;14.70;;;11.43;;
11604;SDS011;5858;43.076;25.626;2023-02-28T00:30:20;13.60;;;11.93;;
11604;SDS011;5858;43.076;25.626;2023-02-28T00:32:48;14.57;;;12.93;;
11604;SDS011;5858;43.076;25.626;2023-02-28T00:35:15;14.60;;;13.00;;
11604;SDS011;5858;43.076;25.626;2023-02-28T00:37:43;13.37;;;11.97;;
11604;SDS011;5858;43.076;25.626;2023-02-28T00:40:10;15.30;;;12.47;;
11604;SDS011;5858;43.076;25.626;2023-02-28T00:42:38;14.87;;;12.73;;
11604;SDS011;5858;43.076;25.626;2023-02-28T00:45:07;15.00;;;12.77;;
11604;SDS011;5858;43.076;25.626;2023-02-28T00:47:37;13.37;;;11.83;;
11604;SDS011;5858;43.076;25.626;2023-02-28T00:50:04;13.63;;;12.13;;
11604;SDS011;5858;43.076;25.626;2023-02-28T00:52:32;13.33;;;11.93;;
11604;SDS011;5858;43.076;25.626;2023-02-28T00:54:59;15.33;;;11.90;;
11604;SDS011;5858;43.076;25.626;2023-02-28T00:57:26;14.17;;;11.23;;
11604;SDS011;5858;43.076;25.626;2023-02-28T00:59:53;15.27;;;12.53;;
11604;SDS011;5858;43.076;25.626;2023-02-28T01:02:22;13.70;;;11.63;;
11604;SDS011;5858;43.076;25.626;2023-02-28T01:04:49;12.77;;;11.40;;
11604;SDS011;5858;43.076;25.626;2023-02-28T01:07:16;13.40;;;12.00;;
11604;SDS011;5858;43.076;25.626;2023-02-28T01:09:43;15.57;;;12.10;;
11604;SDS011;5858;43.076;25.626;2023-02-28T01:12:10;15.03;;;12.97;;
11604;SDS011;5858;43.076;25.626;2023-02-28T01:14:37;14.87;;;12.90;;
11604;SDS011;5858;43.076;25.626;2023-02-28T01:17:05;14.97;;;12.67;;
11604;SDS011;5858;43.076;25.626;2023-02-28T01:19:33;17.70;;;13.47;;
11604;SDS011;5858;43.076;25.626;2023-02-28T01:22:01;17.37;;;13.13;;
11604;SDS011;5858;43.076;25.626;2023-02-28T01:24:28;16.00;;;13.17;;
11604;SDS011;5858;43.076;25.626;2023-02-28T01:26:56;16.27;;;13.23;;
11604;SDS011;5858;43.076;25.626;2023-02-28T01:29:23;16.40;;;13.70;;
11604;SDS011;5858;43.076;25.626;2023-02-28T01:31:51;16.90;;;13.83;;
11604;SDS011;5858;43.076;25.626;2023-02-28T01:34:18;17.00;;;14.27;;
11604;SDS011;5858;43.076;25.626;2023-02-28T01:36:47;17.23;;;13.70;;
11604;SDS011;5858;43.076;25.626;2023-02-28T01:39:16;15.13;;;13.23;;
11604;SDS011;5858;43.076;25.626;2023-02-28T01:41:43;16.30;;;12.83;;
11604;SDS011;5858;43.076;25.626;2023-02-28T01:47:14;17.43;;;13.33;;
11604;SDS011;5858;43.076;25.626;2023-02-28T01:49:41;17.43;;;13.33;;
11604;SDS011;5858;43.076;25.626;2023-02-28T01:52:10;17.70;;;13.57;;
11604;SDS011;5858;43.076;25.626;2023-02-28T01:54:40;19.70;;;14.67;;
11604;SDS011;5858;43.076;25.626;2023-02-28T01:57:08;16.60;;;12.27;;
11604;SDS011;5858;43.076;25.626;2023-02-28T01:59:43;19.67;;;14.07;;
11604;SDS011;5858;43.076;25.626;2023-02-28T02:02:15;18.37;;;12.93;;
11604;SDS011;5858;43.076;25.626;2023-02-28T02:04:45;16.13;;;12.90;;
11604;SDS011;5858;43.076;25.626;2023-02-28T02:07:18;17.57;;;12.90;;
11604;SDS011;5858;43.076;25.626;2023-02-28T02:09:46;17.23;;;12.97;;
11604;SDS011;5858;43.076;25.626;2023-02-28T02:12:15;18.53;;;12.97;;
11604;SDS011;5858;43.076;25.626;2023-02-28T02:14:53;17.13;;;13.23;;
11604;SDS011;5858;43.076;25.626;2023-02-28T02:17:32;17.77;;;13.00;;
11604;SDS011;5858;43.076;25.626;2023-02-28T02:23:12;17.93;;;12.83;;
11604;SDS011;5858;43.076;25.626;2023-02-28T02:25:53;16.03;;;12.17;;
11604;SDS011;5858;43.076;25.626;2023-02-28T02:28:32;16.33;;;11.90;;
11604;SDS011;5858;43.076;25.626;2023-02-28T02:31:29;16.83;;;12.70;;
11604;SDS011;5858;43.076;25.626;2023-02-28T02:34:28;16.80;;;12.10;;
11604;SDS011;5858;43.076;25.626;2023-02-28T02:37:20;15.83;;;11.23;;
11604;SDS011;5858;43.076;25.626;2023-02-28T02:40:09;15.03;;;11.27;;
11604;SDS011;5858;43.076;25.626;2023-02-28T02:42:41;16.47;;;12.37;;
11604;SDS011;5858;43.076;25.626;2023-02-28T02:45:16;17.73;;;13.20;;
11604;SDS011;5858;43.076;25.626;2023-02-28T02:47:49;15.80;;;12.70;;
11604;SDS011;5858;43.076;25.626;2023-02-28T02:50:20;17.00;;;11.93;;
11604;SDS011;5858;43.076;25.626;2023-02-28T02:52:52;15.97;;;11.33;;
11604;SDS011;5858;43.076;25.626;2023-02-28T02:55:23;14.83;;;10.53;;
11604;SDS011;5858;43.076;25.626;2023-02-28T02:57:52;15.50;;;12.57;;
11604;SDS011;5858;43.076;25.626;2023-02-28T03:00:24;14.73;;;10.33;;
11604;SDS011;5858;43.076;25.626;2023-02-28T03:02:56;16.13;;;11.43;;
11604;SDS011;5858;43.076;25.626;2023-02-28T03:05:25;12.93;;;10.03;;
11604;SDS011;5858;43.076;25.626;2023-02-28T03:07:55;14.53;;;10.83;;
11604;SDS011;5858;43.076;25.626;2023-02-28T03:10:26;13.80;;;9.90;;
11604;SDS011;5858;43.076;25.626;2023-02-28T03:12:58;13.90;;;9.87;;
11604;SDS011;5858;43.076;25.626;2023-02-28T03:15:39;14.70;;;10.60;;
11604;SDS011;5858;43.076;25.626;2023-02-28T03:18:23;14.17;;;9.10;;
11604;SDS011;5858;43.076;25.626;2023-02-28T03:20:59;14.47;;;9.83;;
11604;SDS011;5858;43.076;25.626;2023-02-28T03:23:35;13.83;;;9.73;;
11604;SDS011;5858;43.076;25.626;2023-02-28T03:26:11;12.67;;;9.27;;
11604;SDS011;5858;43.076;25.626;2023-02-28T03:28:51;11.87;;;9.00;;
11604;SDS011;5858;43.076;25.626;2023-02-28T03:31:24;12.93;;;9.33;;
11604;SDS011;5858;43.076;25.626;2023-02-28T03:33:58;13.43;;;9.97;;
11604;SDS011;5858;43.076;25.626;2023-02-28T03:36:31;12.20;;;9.03;;
11604;SDS011;5858;43.076;25.626;2023-02-28T03:39:09;14.20;;;9.40;;
11604;SDS011;5858;43.076;25.626;2023-02-28T03:41:41;12.77;;;9.73;;
11604;SDS011;5858;43.076;25.626;2023-02-28T03:44:16;15.47;;;9.73;;
11604;SDS011;5858;43.076;25.626;2023-02-28T03:46:48;15.60;;;10.80;;
11604;SDS011;5858;43.076;25.626;2023-02-28T03:49:24;16.17;;;11.27;;
11604;SDS011;5858;43.076;25.626;2023-02-28T03:51:57;13.87;;;10.90;;
11604;SDS011;5858;43.076;25.626;2023-02-28T03:54:29;15.87;;;10.77;;
11604;SDS011;5858;43.076;25.626;2023-02-28T03:56:59;15.37;;;11.23;;
11604;SDS011;5858;43.076;25.626;2023-02-28T03:59:34;15.70;;;10.30;;
11604;SDS011;5858;43.076;25.626;2023-02-28T04:02:04;15.50;;;11.00;;
11604;SDS011;5858;43.076;25.626;2023-02-28T04:04:31;13.63;;;10.03;;
11604;SDS011;5858;43.076;25.626;2023-02-28T04:07:03;12.73;;;10.03;;
11604;SDS011;5858;43.076;25.626;2023-02-28T04:09:34;14.37;;;10.67;;
11604;SDS011;5858;43.076;25.626;2023-02-28T04:12:01;17.67;;;11.37;;
11604;SDS011;5858;43.076;25.626;2023-02-28T04:14:28;15.63;;;11.57;;
11604;SDS011;5858;43.076;25.626;2023-02-28T04:16:56;13.87;;;11.03;;
11604;SDS011;5858;43.076;25.626;2023-02-28T04:19:22;13.33;;;9.70;;
11604;SDS011;5858;43.076;25.626;2023-02-28T04:21:50;16.57;;;10.77;;
11604;SDS011;5858;43.076;25.626;2023-02-28T04:24:20;13.00;;;10.17;;
11604;SDS011;5858;43.076;25.626;2023-02-28T04:26:49;13.37;;;9.57;;
11604;SDS011;5858;43.076;25.626;2023-02-28T04:29:18;15.47;;;11.37;;
11604;SDS011;5858;43.076;25.626;2023-02-28T04:31:47;13.50;;;9.30;;
11604;SDS011;5858;43.076;25.626;2023-02-28T04:34:14;13.40;;;9.40;;
11604;SDS011;5858;43.076;25.626;2023-02-28T04:36:44;11.90;;;8.77;;
11604;SDS011;5858;43.076;25.626;2023-02-28T04:39:11;12.83;;;9.47;;
11604;SDS011;5858;43.076;25.626;2023-02-28T04:41:40;11.90;;;8.97;;
11604;SDS011;5858;43.076;25.626;2023-02-28T04:44:06;10.50;;;8.37;;
11604;SDS011;5858;43.076;25.626;2023-02-28T04:46:34;13.00;;;8.97;;
11604;SDS011;5858;43.076;25.626;2023-02-28T04:49:00;11.70;;;8.50;;
11604;SDS011;5858;43.076;25.626;2023-02-28T04:51:27;12.53;;;8.67;;
11604;SDS011;5858;43.076;25.626;2023-02-28T04:53:59;10.87;;;8.83;;
11604;SDS011;5858;43.076;25.626;2023-02-28T04:56:26;10.17;;;8.00;;
11604;SDS011;5858;43.076;25.626;2023-02-28T04:58:55;11.33;;;7.97;;
11604;SDS011;5858;43.076;25.626;2023-02-28T05:01:22;9.57;;;7.63;;
11604;SDS011;5858;43.076;25.626;2023-02-28T05:03:51;11.93;;;8.80;;
11604;SDS011;5858;43.076;25.626;2023-02-28T05:06:20;12.97;;;8.93;;
11604;SDS011;5858;43.076;25.626;2023-02-28T05:08:48;12.47;;;7.70;;
11604;SDS011;5858;43.076;25.626;2023-02-28T05:11:16;12.33;;;8.33;;
11604;SDS011;5858;43.076;25.626;2023-02-28T05:13:45;10.73;;;7.70;;
11604;SDS011;5858;43.076;25.626;2023-02-28T05:16:14;10.87;;;8.17;;
11604;SDS011;5858;43.076;25.626;2023-02-28T05:18:41;9.90;;;7.93;;
11604;SDS011;5858;43.076;25.626;2023-02-28T05:21:17;10.03;;;8.03;;
11604;SDS011;5858;43.076;25.626;2023-02-28T05:23:50;9.33;;;6.83;;
11604;SDS011;5858;43.076;25.626;2023-02-28T05:26:18;9.27;;;6.53;;
11604;SDS011;5858;43.076;25.626;2023-02-28T05:28:45;10.73;;;7.17;;
11604;SDS011;5858;43.076;25.626;2023-02-28T05:31:12;14.63;;;7.57;;
11604;SDS011;5858;43.076;25.626;2023-02-28T05:33:40;10.90;;;7.33;;
11604;SDS011;5858;43.076;25.626;2023-02-28T05:36:07;11.63;;;7.93;;
11604;SDS011;5858;43.076;25.626;2023-02-28T05:38:35;12.80;;;7.47;;
11604;SDS011;5858;43.076;25.626;2023-02-28T05:41:04;9.77;;;6.87;;
11604;SDS011;5858;43.076;25.626;2023-02-28T05:43:32;12.57;;;7.37;;
11604;SDS011;5858;43.076;25.626;2023-02-28T05:46:01;8.83;;;6.17;;
11604;SDS011;5858;43.076;25.626;2023-02-28T05:48:30;8.53;;;7.37;;
11604;SDS011;5858;43.076;25.626;2023-02-28T05:50:57;10.43;;;6.70;;
11604;SDS011;5858;43.076;25.626;2023-02-28T05:53:24;9.77;;;7.20;;
11604;SDS011;5858;43.076;25.626;2023-02-28T05:55:51;14.83;;;6.73;;
11604;SDS011;5858;43.076;25.626;2023-02-28T05:58:18;8.87;;;6.87;;
11604;SDS011;5858;43.076;25.626;2023-02-28T06:00:45;8.80;;;6.73;;
11604;SDS011;5858;43.076;25.626;2023-02-28T06:03:12;10.93;;;7.53;;
11604;SDS011;5858;43.076;25.626;2023-02-28T06:05:41;11.87;;;7.43;;
11604;SDS011;5858;43.076;25.626;2023-02-28T06:08:08;10.00;;;7.00;;
11604;SDS011;5858;43.076;25.626;2023-02-28T06:10:35;9.57;;;6.57;;
11604;SDS011;5858;43.076;25.626;2023-02-28T06:13:02;7.87;;;6.37;;
11604;SDS011;5858;43.076;25.626;2023-02-28T06:15:30;8.07;;;6.70;;
11604;SDS011;5858;43.076;25.626;2023-02-28T06:17:58;7.93;;;6.40;;
11604;SDS011;5858;43.076;25.626;2023-02-28T06:20:27;8.53;;;6.57;;
11604;SDS011;5858;43.076;25.626;2023-02-28T06:22:56;8.80;;;6.27;;
11604;SDS011;5858;43.076;25.626;2023-02-28T06:25:24;10.47;;;6.93;;
11604;SDS011;5858;43.076;25.626;2023-02-28T06:27:52;13.07;;;6.50;;
11604;SDS011;5858;43.076;25.626;2023-02-28T06:30:19;9.67;;;6.83;;
11604;SDS011;5858;43.076;25.626;2023-02-28T06:32:49;8.67;;;6.83;;
11604;SDS011;5858;43.076;25.626;2023-02-28T06:35:17;11.17;;;6.43;;
11604;SDS011;5858;43.076;25.626;2023-02-28T06:37:44;9.80;;;6.27;;
11604;SDS011;5858;43.076;25.626;2023-02-28T06:40:13;9.67;;;6.93;;
11604;SDS011;5858;43.076;25.626;2023-02-28T06:42:41;9.77;;;7.77;;
11604;SDS011;5858;43.076;25.626;2023-02-28T06:45:08;10.20;;;7.80;;
11604;SDS011;5858;43.076;25.626;2023-02-28T06:47:36;9.87;;;7.40;;
11604;SDS011;5858;43.076;25.626;2023-02-28T06:50:06;7.97;;;6.60;;
11604;SDS011;5858;43.076;25.626;2023-02-28T06:52:43;10.60;;;7.03;;
11604;SDS011;5858;43.076;25.626;2023-02-28T06:55:12;9.13;;;6.30;;
11604;SDS011;5858;43.076;25.626;2023-02-28T06:57:40;8.63;;;6.30;;
11604;SDS011;5858;43.076;25.626;2023-02-28T07:00:12;8.87;;;6.03;;
11604;SDS011;5858;43.076;25.626;2023-02-28T07:02:43;9.00;;;6.10;;
11604;SDS011;5858;43.076;25.626;2023-02-28T07:05:10;8.37;;;6.23;;
11604;SDS011;5858;43.076;25.626;2023-02-28T07:07:40;8.63;;;5.77;;
11604;SDS011;5858;43.076;25.626;2023-02-28T07:10:12;8.50;;;5.70;;
11604;SDS011;5858;43.076;25.626;2023-02-28T07:12:42;8.03;;;6.43;;
11604;SDS011;5858;43.076;25.626;2023-02-28T07:15:10;9.27;;;6.30;;
11604;SDS011;5858;43.076;25.626;2023-02-28T07:17:39;8.20;;;5.63;;
11604;SDS011;5858;43.076;25.626;2023-02-28T07:20:06;7.33;;;5.33;;
11604;SDS011;5858;43.076;25.626;2023-02-28T07:22:34;43.70;;;25.13;;
11604;SDS011;5858;43.076;25.626;2023-02-28T07:25:05;18.67;;;11.43;;
11604;SDS011;5858;43.076;25.626;2023-02-28T07:27:34;11.07;;;8.23;;
11604;SDS011;5858;43.076;25.626;2023-02-28T07:30:01;8.33;;;5.43;;
11604;SDS011;5858;43.076;25.626;2023-02-28T07:32:29;6.90;;;5.23;;
11604;SDS011;5858;43.076;25.626;2023-02-28T07:34:56;12.37;;;9.30;;
11604;SDS011;5858;43.076;25.626;2023-02-28T07:37:23;8.97;;;5.93;;
11604;SDS011;5858;43.076;25.626;2023-02-28T07:39:50;9.27;;;6.67;;
11604;SDS011;5858;43.076;25.626;2023-02-28T07:42:17;9.37;;;7.23;;
11604;SDS011;5858;43.076;25.626;2023-02-28T07:44:46;9.10;;;6.93;;
11604;SDS011;5858;43.076;25.626;2023-02-28T07:47:13;7.80;;;6.07;;
11604;SDS011;5858;43.076;25.626;2023-02-28T07:49:40;6.77;;;5.23;;
11604;SDS011;5858;43.076;25.626;2023-02-28T07:52:07;6.20;;;5.30;;
11604;SDS011;5858;43.076;25.626;2023-02-28T07:54:36;9.33;;;7.00;;
11604;SDS011;5858;43.076;25.626;2023-02-28T07:57:03;7.87;;;4.93;;
11604;SDS011;5858;43.076;25.626;2023-02-28T07:59:30;11.80;;;5.87;;
11604;SDS011;5858;43.076;25.626;2023-02-28T08:01:59;8.60;;;5.87;;
11604;SDS011;5858;43.076;25.626;2023-02-28T08:04:26;10.97;;;6.40;;
11604;SDS011;5858;43.076;25.626;2023-02-28T08:06:54;10.97;;;7.13;;
11604;SDS011;5858;43.076;25.626;2023-02-28T08:09:23;10.57;;;5.70;;
11604;SDS011;5858;43.076;25.626;2023-02-28T08:11:54;10.93;;;7.73;;
11604;SDS011;5858;43.076;25.626;2023-02-28T08:14:22;8.53;;;5.80;;
11604;SDS011;5858;43.076;25.626;2023-02-28T08:16:49;9.40;;;7.17;;
11604;SDS011;5858;43.076;25.626;2023-02-28T08:19:17;12.07;;;7.30;;
11604;SDS011;5858;43.076;25.626;2023-02-28T08:21:44;8.43;;;6.90;;
11604;SDS011;5858;43.076;25.626;2023-02-28T08:24:11;9.60;;;6.43;;
11604;SDS011;5858;43.076;25.626;2023-02-28T08:26:39;11.20;;;6.37;;
11604;SDS011;5858;43.076;25.626;2023-02-28T08:29:06;8.03;;;6.20;;
11604;SDS011;5858;43.076;25.626;2023-02-28T08:31:33;11.10;;;7.53;;
11604;SDS011;5858;43.076;25.626;2023-02-28T08:34:02;9.93;;;6.63;;
11604;SDS011;5858;43.076;25.626;2023-02-28T08:36:34;9.50;;;6.47;;
11604;SDS011;5858;43.076;25.626;2023-02-28T08:39:04;10.37;;;8.63;;
11604;SDS011;5858;43.076;25.626;2023-02-28T08:41:31;10.73;;;9.13;;
11604;SDS011;5858;43.076;25.626;2023-02-28T08:44:01;13.10;;;9.90;;
11604;SDS011;5858;43.076;25.626;2023-02-28T08:46:30;12.90;;;10.07;;
11604;SDS011;5858;43.076;25.626;2023-02-28T08:49:00;16.07;;;9.10;;
11604;SDS011;5858;43.076;25.626;2023-02-28T08:51:30;8.70;;;7.80;;
11604;SDS011;5858;43.076;25.626;2023-02-28T08:54:07;10.93;;;7.67;;
11604;SDS011;5858;43.076;25.626;2023-02-28T08:56:37;10.93;;;7.97;;
11604;SDS011;5858;43.076;25.626;2023-02-28T08:59:05;10.93;;;7.43;;
11604;SDS011;5858;43.076;25.626;2023-02-28T09:01:36;9.73;;;6.87;;
11604;SDS011;5858;43.076;25.626;2023-02-28T09:04:03;12.67;;;7.47;;
11604;SDS011;5858;43.076;25.626;2023-02-28T09:06:32;13.40;;;8.03;;
11604;SDS011;5858;43.076;25.626;2023-02-28T09:09:00;12.27;;;8.00;;
11604;SDS011;5858;43.076;25.626;2023-02-28T09:11:35;8.77;;;7.47;;
11604;SDS011;5858;43.076;25.626;2023-02-28T09:14:07;10.67;;;8.10;;
11604;SDS011;5858;43.076;25.626;2023-02-28T09:16:34;11.50;;;7.97;;
11604;SDS011;5858;43.076;25.626;2023-02-28T09:19:10;9.77;;;7.57;;
11604;SDS011;5858;43.076;25.626;2023-02-28T09:21:37;10.63;;;8.03;;
11604;SDS011;5858;43.076;25.626;2023-02-28T09:24:08;9.77;;;8.10;;
11604;SDS011;5858;43.076;25.626;2023-02-28T09:26:36;9.70;;;8.07;;
11604;SDS011;5858;43.076;25.626;2023-02-28T09:29:04;10.67;;;7.53;;
11604;SDS011;5858;43.076;25.626;2023-02-28T09:31:31;7.27;;;5.67;;
11604;SDS011;5858;43.076;25.626;2023-02-28T09:34:01;9.53;;;7.17;;
11604;SDS011;5858;43.076;25.626;2023-02-28T09:36:28;9.97;;;6.30;;
11604;SDS011;5858;43.076;25.626;2023-02-28T09:38:56;9.23;;;5.90;;
11604;SDS011;5858;43.076;25.626;2023-02-28T09:41:24;8.43;;;6.87;;
11604;SDS011;5858;43.076;25.626;2023-02-28T09:43:53;12.13;;;7.10;;
11604;SDS011;5858;43.076;25.626;2023-02-28T09:46:27;10.27;;;6.97;;
11604;SDS011;5858;43.076;25.626;2023-02-28T09:49:02;9.63;;;6.53;;
11604;SDS011;5858;43.076;25.626;2023-02-28T09:51:34;7.23;;;6.07;;
11604;SDS011;5858;43.076;25.626;2023-02-28T09:54:14;9.27;;;6.10;;
11604;SDS011;5858;43.076;25.626;2023-02-28T09:56:49;9.23;;;6.80;;
11604;SDS011;5858;43.076;25.626;2023-02-28T09:59:29;9.40;;;6.70;;
11604;SDS011;5858;43.076;25.626;2023-02-28T10:02:04;7.83;;;6.23;;
11604;SDS011;5858;43.076;25.626;2023-02-28T10:04:45;11.57;;;7.00;;
11604;SDS011;5858;43.076;25.626;2023-02-28T10:07:20;10.37;;;6.30;;
11604;SDS011;5858;43.076;25.626;2023-02-28T10:09:56;10.37;;;6.73;;
11604;SDS011;5858;43.076;25.626;2023-02-28T10:12:28;9.93;;;6.07;;
11604;SDS011;5858;43.076;25.626;2023-02-28T10:15:09;13.70;;;7.13;;
11604;SDS011;5858;43.076;25.626;2023-02-28T10:20:56;8.37;;;6.63;;
11604;SDS011;5858;43.076;25.626;2023-02-28T10:24:01;10.67;;;7.20;;
11604;SDS011;5858;43.076;25.626;2023-02-28T10:26:49;9.63;;;6.80;;
11604;SDS011;5858;43.076;25.626;2023-02-28T10:29:28;7.20;;;6.17;;
11604;SDS011;5858;43.076;25.626;2023-02-28T10:32:06;10.07;;;5.73;;
11604;SDS011;5858;43.076;25.626;2023-02-28T10:34:54;7.43;;;5.87;;
11604;SDS011;5858;43.076;25.626;2023-02-28T10:37:28;12.27;;;6.83;;
11604;SDS011;5858;43.076;25.626;2023-02-28T10:40:24;6.67;;;5.90;;
11604;SDS011;5858;43.076;25.626;2023-02-28T10:42:57;9.13;;;6.40;;
11604;SDS011;5858;43.076;25.626;2023-02-28T10:45:25;8.17;;;6.37;;
11604;SDS011;5858;43.076;25.626;2023-02-28T10:48:05;12.33;;;7.13;;
11604;SDS011;5858;43.076;25.626;2023-02-28T10:50:56;10.23;;;7.60;;
11604;SDS011;5858;43.076;25.626;2023-02-28T10:53:30;11.67;;;7.77;;
11604;SDS011;5858;43.076;25.626;2023-02-28T10:56:14;9.87;;;7.63;;
11604;SDS011;5858;43.076;25.626;2023-02-28T10:58:55;12.37;;;7.97;;
11604;SDS011;5858;43.076;25.626;2023-02-28T11:01:24;11.27;;;6.60;;
11604;SDS011;5858;43.076;25.626;2023-02-28T11:04:19;13.20;;;7.87;;
11604;SDS011;5858;43.076;25.626;2023-02-28T11:07:01;11.70;;;7.17;;
11604;SDS011;5858;43.076;25.626;2023-02-28T11:09:32;12.83;;;8.50;;
11604;SDS011;5858;43.076;25.626;2023-02-28T11:12:01;17.47;;;7.50;;
11604;SDS011;5858;43.076;25.626;2023-02-28T11:14:32;10.40;;;7.30;;
11604;SDS011;5858;43.076;25.626;2023-02-28T11:17:11;8.37;;;7.13;;
11604;SDS011;5858;43.076;25.626;2023-02-28T11:19:44;14.20;;;8.00;;
11604;SDS011;5858;43.076;25.626;2023-02-28T11:22:16;14.80;;;7.73;;
11604;SDS011;5858;43.076;25.626;2023-02-28T11:24:49;11.00;;;7.83;;
11604;SDS011;5858;43.076;25.626;2023-02-28T11:30:28;16.47;;;7.93;;
11604;SDS011;5858;43.076;25.626;2023-02-28T11:33:23;9.23;;;7.40;;
11604;SDS011;5858;43.076;25.626;2023-02-28T11:35:58;9.50;;;6.90;;
11604;SDS011;5858;43.076;25.626;2023-02-28T11:45:15;11.37;;;7.60;;
11604;SDS011;5858;43.076;25.626;2023-02-28T11:47:59;10.40;;;7.73;;
11604;SDS011;5858;43.076;25.626;2023-02-28T11:53:27;10.20;;;7.10;;
11604;SDS011;5858;43.076;25.626;2023-02-28T11:56:11;12.80;;;7.47;;
11604;SDS011;5858;43.076;25.626;2023-02-28T11:58:49;10.17;;;7.00;;
11604;SDS011;5858;43.076;25.626;2023-02-28T12:01:35;11.53;;;7.67;;
11604;SDS011;5858;43.076;25.626;2023-02-28T12:04:20;16.43;;;8.20;;
11604;SDS011;5858;43.076;25.626;2023-02-28T12:06:57;13.97;;;8.60;;
11604;SDS011;5858;43.076;25.626;2023-02-28T12:09:47;15.10;;;8.30;;
11604;SDS011;5858;43.076;25.626;2023-02-28T12:12:29;13.50;;;7.77;;
11604;SDS011;5858;43.076;25.626;2023-02-28T12:15:23;12.93;;;8.90;;
11604;SDS011;5858;43.076;25.626;2023-02-28T12:18:06;12.77;;;8.63;;
11604;SDS011;5858;43.076;25.626;2023-02-28T12:20:46;15.73;;;8.67;;
11604;SDS011;5858;43.076;25.626;2023-02-28T12:23:26;10.33;;;8.10;;
11604;SDS011;5858;43.076;25.626;2023-02-28T12:26:19;14.70;;;8.97;;
11604;SDS011;5858;43.076;25.626;2023-02-28T12:28:57;14.47;;;9.53;;
11604;SDS011;5858;43.076;25.626;2023-02-28T12:31:29;17.63;;;10.40;;
11604;SDS011;5858;43.076;25.626;2023-02-28T12:34:01;16.10;;;9.80;;
11604;SDS011;5858;43.076;25.626;2023-02-28T12:36:34;15.53;;;9.37;;
11604;SDS011;5858;43.076;25.626;2023-02-28T12:39:04;12.53;;;8.97;;
11604;SDS011;5858;43.076;25.626;2023-02-28T12:41:39;13.43;;;8.67;;
11604;SDS011;5858;43.076;25.626;2023-02-28T12:44:19;13.23;;;10.10;;
11604;SDS011;5858;43.076;25.626;2023-02-28T12:47:12;16.70;;;11.63;;
11604;SDS011;5858;43.076;25.626;2023-02-28T12:49:45;13.20;;;10.97;;
11604;SDS011;5858;43.076;25.626;2023-02-28T12:52:19;12.07;;;10.20;;
11604;SDS011;5858;43.076;25.626;2023-02-28T12:54:54;18.77;;;11.23;;
11604;SDS011;5858;43.076;25.626;2023-02-28T12:57:28;14.17;;;9.90;;
11604;SDS011;5858;43.076;25.626;2023-02-28T13:10:42;16.40;;;10.73;;
11604;SDS011;5858;43.076;25.626;2023-02-28T13:13:18;15.20;;;10.93;;
11604;SDS011;5858;43.076;25.626;2023-02-28T13:15:56;13.10;;;10.90;;
11604;SDS011;5858;43.076;25.626;2023-02-28T13:18:35;17.20;;;11.63;;
11604;SDS011;5858;43.076;25.626;2023-02-28T13:21:05;14.10;;;11.57;;
11604;SDS011;5858;43.076;25.626;2023-02-28T13:23:56;15.10;;;11.67;;
11604;SDS011;5858;43.076;25.626;2023-02-28T13:29:32;17.20;;;11.20;;
11604;SDS011;5858;43.076;25.626;2023-02-28T13:32:27;14.47;;;12.03;;
11604;SDS011;5858;43.076;25.626;2023-02-28T13:38:23;15.50;;;12.30;;
11604;SDS011;5858;43.076;25.626;2023-02-28T13:44:06;20.87;;;13.43;;
11604;SDS011;5858;43.076;25.626;2023-02-28T13:49:47;19.57;;;13.07;;
11604;SDS011;5858;43.076;25.626;2023-02-28T13:52:18;19.60;;;13.73;;
11604;SDS011;5858;43.076;25.626;2023-02-28T13:54:54;20.37;;;14.00;;
11604;SDS011;5858;43.076;25.626;2023-02-28T13:57:39;19.73;;;13.53;;
11604;SDS011;5858;43.076;25.626;2023-02-28T14:00:17;18.40;;;13.47;;
11604;SDS011;5858;43.076;25.626;2023-02-28T14:02:57;18.17;;;12.83;;
11604;SDS011;5858;43.076;25.626;2023-02-28T14:05:43;15.47;;;11.67;;
11604;SDS011;5858;43.076;25.626;2023-02-28T14:08:12;16.30;;;12.37;;
11604;SDS011;5858;43.076;25.626;2023-02-28T14:10:43;15.90;;;13.27;;
11604;SDS011;5858;43.076;25.626;2023-02-28T14:13:36;18.13;;;12.93;;
11604;SDS011;5858;43.076;25.626;2023-02-28T14:16:09;19.90;;;13.40;;
11604;SDS011;5858;43.076;25.626;2023-02-28T14:18:47;18.33;;;14.83;;
11604;SDS011;5858;43.076;25.626;2023-02-28T14:21:20;20.60;;;14.17;;
11604;SDS011;5858;43.076;25.626;2023-02-28T14:27:00;19.77;;;13.83;;
11604;SDS011;5858;43.076;25.626;2023-02-28T14:29:43;18.20;;;13.63;;
11604;SDS011;5858;43.076;25.626;2023-02-28T14:32:39;16.67;;;12.93;;
11604;SDS011;5858;43.076;25.626;2023-02-28T14:35:18;17.53;;;13.07;;
11604;SDS011;5858;43.076;25.626;2023-02-28T14:38:03;17.83;;;12.60;;
11604;SDS011;5858;43.076;25.626;2023-02-28T14:40:34;19.40;;;15.60;;
11604;SDS011;5858;43.076;25.626;2023-02-28T14:43:04;19.37;;;13.67;;
11604;SDS011;5858;43.076;25.626;2023-02-28T14:45:48;19.07;;;14.27;;
11604;SDS011;5858;43.076;25.626;2023-02-28T14:48:17;18.37;;;14.73;;
11604;SDS011;5858;43.076;25.626;2023-02-28T14:50:50;20.00;;;13.87;;
11604;SDS011;5858;43.076;25.626;2023-02-28T14:53:21;19.37;;;14.57;;
11604;SDS011;5858;43.076;25.626;2023-02-28T14:55:51;18.43;;;14.37;;
11604;SDS011;5858;43.076;25.626;2023-02-28T14:58:21;18.23;;;13.80;;
11604;SDS011;5858;43.076;25.626;2023-02-28T15:00:55;20.87;;;14.33;;
11604;SDS011;5858;43.076;25.626;2023-02-28T15:03:29;20.23;;;14.30;;
11604;SDS011;5858;43.076;25.626;2023-02-28T15:05:59;15.97;;;13.27;;
11604;SDS011;5858;43.076;25.626;2023-02-28T15:08:28;19.00;;;14.03;;
11604;SDS011;5858;43.076;25.626;2023-02-28T15:11:00;24.57;;;17.83;;
11604;SDS011;5858;43.076;25.626;2023-02-28T15:13:33;20.00;;;14.10;;
11604;SDS011;5858;43.076;25.626;2023-02-28T15:16:07;15.73;;;12.27;;
11604;SDS011;5858;43.076;25.626;2023-02-28T15:18:42;16.40;;;11.37;;
11604;SDS011;5858;43.076;25.626;2023-02-28T15:21:15;16.73;;;11.40;;
11604;SDS011;5858;43.076;25.626;2023-02-28T15:23:45;15.33;;;11.70;;
11604;SDS011;5858;43.076;25.626;2023-02-28T15:26:16;17.10;;;12.27;;
11604;SDS011;5858;43.076;25.626;2023-02-28T15:28:45;16.53;;;12.50;;
11604;SDS011;5858;43.076;25.626;2023-02-28T15:31:18;15.10;;;11.50;;
11604;SDS011;5858;43.076;25.626;2023-02-28T15:33:52;13.80;;;10.83;;
11604;SDS011;5858;43.076;25.626;2023-02-28T15:36:23;15.67;;;11.17;;
11604;SDS011;5858;43.076;25.626;2023-02-28T15:38:53;15.20;;;10.97;;
11604;SDS011;5858;43.076;25.626;2023-02-28T15:41:26;17.03;;;11.67;;
11604;SDS011;5858;43.076;25.626;2023-02-28T15:46:41;15.60;;;11.13;;
11604;SDS011;5858;43.076;25.626;2023-02-28T15:49:16;12.43;;;10.00;;
11604;SDS011;5858;43.076;25.626;2023-02-28T15:51:47;12.07;;;10.20;;